HAZ7348 ROAH-ZSPD
Flight info
| Callsign | HAZ7348 |
|---|---|
| Flight time | 1h 52m |
| Altitude | 32000 |
| Route | CHAMP Y579 POTET A593 LAMEN/K0870F320 A593 AKARA/K0870S0975 A593 DUMET DUM82A |
| Aircraft | B738/M-SDE2E3FGHIRWXY/LB1 |
Departure
| Time | 2026-05-05 08:54 |
|---|---|
| Airport | Naha International Airport (ROAH) |
Arrival
| Time | 2026-05-05 10:46 |
|---|---|
| Airport | Shanghai Pudong International Airport (ZSPD) |
| Time | Latitude | Longitude | Altitude | Speed | Heading |
|---|---|---|---|---|---|
| 2026-05-05 08:19 | 26.21074 | 127.64976 | 29 ft | 0 kts | 88° |
| 2026-05-05 08:36 | 26.21074 | 127.64972 | 28 ft | 1 kts | 88° |
| 2026-05-05 08:36 | 26.21073 | 127.64955 | 28 ft | 2 kts | 88° |
| 2026-05-05 08:36 | 26.21073 | 127.64939 | 28 ft | 2 kts | 88° |
| 2026-05-05 08:37 | 26.21072 | 127.64922 | 27 ft | 2 kts | 99° |
| 2026-05-05 08:37 | 26.21077 | 127.64907 | 27 ft | 2 kts | 121° |
| 2026-05-05 08:37 | 26.21086 | 127.64894 | 27 ft | 2 kts | 141° |
| 2026-05-05 08:37 | 26.21099 | 127.64886 | 27 ft | 2 kts | 161° |
| 2026-05-05 08:38 | 26.21110 | 127.64883 | 27 ft | 0 kts | 175° |
| 2026-05-05 08:38 | 26.21117 | 127.64883 | 27 ft | 0 kts | 178° |
| 2026-05-05 08:42 | 26.21112 | 127.64883 | 27 ft | 1 kts | 178° |
| 2026-05-05 08:43 | 26.21095 | 127.64883 | 27 ft | 3 kts | 178° |
| 2026-05-05 08:43 | 26.21070 | 127.64885 | 27 ft | 4 kts | 177° |
| 2026-05-05 08:43 | 26.21036 | 127.64887 | 27 ft | 5 kts | 178° |
| 2026-05-05 08:43 | 26.20995 | 127.64888 | 27 ft | 6 kts | 178° |
| 2026-05-05 08:44 | 26.20949 | 127.64880 | 27 ft | 7 kts | 204° |
| 2026-05-05 08:44 | 26.20915 | 127.64831 | 26 ft | 9 kts | 257° |
| 2026-05-05 08:44 | 26.20893 | 127.64758 | 24 ft | 10 kts | 224° |
| 2026-05-05 08:44 | 26.20819 | 127.64736 | 23 ft | 12 kts | 179° |
| 2026-05-05 08:45 | 26.20727 | 127.64741 | 22 ft | 13 kts | 177° |
| 2026-05-05 08:45 | 26.20628 | 127.64745 | 22 ft | 14 kts | 178° |
| 2026-05-05 08:45 | 26.20525 | 127.64749 | 22 ft | 14 kts | 178° |
| 2026-05-05 08:45 | 26.20422 | 127.64754 | 22 ft | 14 kts | 178° |
| 2026-05-05 08:46 | 26.20318 | 127.64759 | 22 ft | 15 kts | 178° |
| 2026-05-05 08:46 | 26.20213 | 127.64764 | 22 ft | 15 kts | 177° |
| 2026-05-05 08:46 | 26.20111 | 127.64769 | 23 ft | 14 kts | 178° |
| 2026-05-05 08:46 | 26.20016 | 127.64773 | 24 ft | 13 kts | 178° |
| 2026-05-05 08:47 | 26.19917 | 127.64777 | 23 ft | 14 kts | 176° |
| 2026-05-05 08:47 | 26.19817 | 127.64784 | 23 ft | 13 kts | 177° |
| 2026-05-05 08:47 | 26.19720 | 127.64798 | 23 ft | 14 kts | 189° |
| 2026-05-05 08:47 | 26.19626 | 127.64791 | 24 ft | 12 kts | 179° |
| 2026-05-05 08:48 | 26.19540 | 127.64795 | 26 ft | 12 kts | 178° |
| 2026-05-05 08:48 | 26.19453 | 127.64799 | 26 ft | 12 kts | 178° |
| 2026-05-05 08:48 | 26.19362 | 127.64803 | 26 ft | 13 kts | 178° |
| 2026-05-05 08:48 | 26.19273 | 127.64811 | 26 ft | 13 kts | 180° |
| 2026-05-05 08:49 | 26.19182 | 127.64812 | 26 ft | 12 kts | 179° |
| 2026-05-05 08:49 | 26.19091 | 127.64816 | 26 ft | 13 kts | 177° |
| 2026-05-05 08:49 | 26.19000 | 127.64821 | 26 ft | 13 kts | 179° |
| 2026-05-05 08:49 | 26.18909 | 127.64824 | 26 ft | 13 kts | 178° |
| 2026-05-05 08:50 | 26.18815 | 127.64827 | 26 ft | 13 kts | 175° |
| 2026-05-05 08:50 | 26.18720 | 127.64834 | 26 ft | 13 kts | 178° |
| 2026-05-05 08:50 | 26.18621 | 127.64838 | 25 ft | 15 kts | 177° |
| 2026-05-05 08:50 | 26.18509 | 127.64844 | 23 ft | 16 kts | 178° |
| 2026-05-05 08:51 | 26.18395 | 127.64848 | 22 ft | 15 kts | 177° |
| 2026-05-05 08:51 | 26.18294 | 127.64852 | 22 ft | 13 kts | 182° |
| 2026-05-05 08:51 | 26.18244 | 127.64797 | 20 ft | 11 kts | 263° |
| 2026-05-05 08:51 | 26.18241 | 127.64754 | 19 ft | 0 kts | 268° |
| 2026-05-05 08:52 | 26.18241 | 127.64742 | 19 ft | 2 kts | 268° |
| 2026-05-05 08:52 | 26.18240 | 127.64712 | 19 ft | 5 kts | 268° |
| 2026-05-05 08:52 | 26.18248 | 127.64667 | 17 ft | 7 kts | 310° |
| 2026-05-05 08:53 | 26.18295 | 127.64647 | 18 ft | 4 kts | 359° |
| 2026-05-05 08:53 | 26.18296 | 127.64647 | 18 ft | 0 kts | 358° |
| 2026-05-05 08:53 | 26.18380 | 127.64642 | 19 ft | 40 kts | 358° |
| 2026-05-05 08:53 | 26.18909 | 127.64616 | 24 ft | 108 kts | 357° |
| 2026-05-05 08:54 | 26.19857 | 127.64567 | 30 ft | 162 kts | 359° |
| 2026-05-05 08:54 | 26.20978 | 127.64463 | 688 ft | 161 kts | 356° |
| 2026-05-05 08:54 | 26.22088 | 127.64387 | 1369 ft | 163 kts | 1° |
| 2026-05-05 08:54 | 26.23268 | 127.64324 | 1777 ft | 176 kts | 6° |
| 2026-05-05 08:55 | 26.24554 | 127.64335 | 2046 ft | 195 kts | 2° |
| 2026-05-05 08:55 | 26.25976 | 127.64186 | 2242 ft | 219 kts | 346° |
| 2026-05-05 08:55 | 26.27271 | 127.63309 | 2587 ft | 225 kts | 317° |
| 2026-05-05 08:55 | 26.28594 | 127.62241 | 3080 ft | 240 kts | 329° |
| 2026-05-05 08:56 | 26.30098 | 127.61343 | 3620 ft | 255 kts | 329° |
| 2026-05-05 08:56 | 26.31700 | 127.60352 | 4232 ft | 266 kts | 328° |
| 2026-05-05 08:56 | 26.33368 | 127.59310 | 4933 ft | 273 kts | 328° |
| 2026-05-05 08:56 | 26.35043 | 127.58262 | 5630 ft | 279 kts | 328° |
| 2026-05-05 08:57 | 26.36734 | 127.57201 | 6400 ft | 282 kts | 327° |
| 2026-05-05 08:57 | 26.38459 | 127.56118 | 7174 ft | 285 kts | 326° |
| 2026-05-05 08:57 | 26.40191 | 127.55029 | 7922 ft | 290 kts | 325° |
| 2026-05-05 08:57 | 26.41981 | 127.53902 | 8711 ft | 293 kts | 324° |
| 2026-05-05 08:58 | 26.43777 | 127.52822 | 9490 ft | 299 kts | 330° |
| 2026-05-05 08:58 | 26.45723 | 127.52034 | 10234 ft | 307 kts | 335° |
| 2026-05-05 08:58 | 26.47652 | 127.51318 | 10492 ft | 328 kts | 334° |
| 2026-05-05 08:58 | 26.49760 | 127.50502 | 10639 ft | 351 kts | 335° |
| 2026-05-05 08:59 | 26.54953 | 127.48516 | 11576 ft | 380 kts | 335° |
| 2026-05-05 08:59 | 26.57377 | 127.47592 | 12141 ft | 387 kts | 335° |
| 2026-05-05 08:59 | 26.59983 | 127.46598 | 12929 ft | 388 kts | 334° |
| 2026-05-05 09:00 | 26.62558 | 127.45615 | 13632 ft | 392 kts | 334° |
| 2026-05-05 09:00 | 26.65094 | 127.44644 | 14334 ft | 395 kts | 334° |
| 2026-05-05 09:00 | 26.67530 | 127.43712 | 15029 ft | 396 kts | 335° |
| 2026-05-05 09:00 | 26.70243 | 127.42673 | 15754 ft | 399 kts | 335° |
| 2026-05-05 09:01 | 26.72860 | 127.41671 | 16414 ft | 402 kts | 335° |
| 2026-05-05 09:01 | 26.75428 | 127.40685 | 16959 ft | 407 kts | 335° |
| 2026-05-05 09:01 | 26.78124 | 127.39661 | 17389 ft | 416 kts | 339° |
| 2026-05-05 09:01 | 26.80976 | 127.39017 | 18064 ft | 423 kts | 351° |
| 2026-05-05 09:02 | 26.83936 | 127.39056 | 18584 ft | 434 kts | 5° |
| 2026-05-05 09:02 | 26.86871 | 127.40009 | 19115 ft | 444 kts | 22° |
| 2026-05-05 09:02 | 26.89562 | 127.41791 | 19677 ft | 450 kts | 34° |
| 2026-05-05 09:02 | 26.92011 | 127.44006 | 20121 ft | 456 kts | 39° |
| 2026-05-05 09:03 | 26.94432 | 127.46321 | 20623 ft | 459 kts | 38° |
| 2026-05-05 09:03 | 26.96898 | 127.48626 | 21072 ft | 463 kts | 37° |
| 2026-05-05 09:03 | 26.99407 | 127.50959 | 21545 ft | 467 kts | 37° |
| 2026-05-05 09:03 | 27.01911 | 127.53301 | 21988 ft | 470 kts | 37° |
| 2026-05-05 09:04 | 27.04435 | 127.55669 | 22422 ft | 473 kts | 37° |
| 2026-05-05 09:04 | 27.07000 | 127.58079 | 22847 ft | 476 kts | 37° |
| 2026-05-05 09:04 | 27.09559 | 127.60486 | 23253 ft | 479 kts | 37° |
| 2026-05-05 09:04 | 27.12115 | 127.62893 | 23641 ft | 482 kts | 37° |
| 2026-05-05 09:05 | 27.14701 | 127.65330 | 24007 ft | 486 kts | 37° |
| 2026-05-05 09:05 | 27.17316 | 127.67798 | 24372 ft | 489 kts | 37° |
| 2026-05-05 09:05 | 27.19893 | 127.70232 | 24721 ft | 492 kts | 37° |
| 2026-05-05 09:05 | 27.22451 | 127.72822 | 25057 ft | 497 kts | 42° |
| 2026-05-05 09:06 | 27.24841 | 127.75574 | 25407 ft | 500 kts | 44° |
| 2026-05-05 09:06 | 27.27250 | 127.78418 | 25618 ft | 506 kts | 44° |
| 2026-05-05 09:06 | 27.29711 | 127.81277 | 25891 ft | 509 kts | 44° |
| 2026-05-05 09:06 | 27.32191 | 127.84132 | 26171 ft | 513 kts | 43° |
| 2026-05-05 09:07 | 27.34692 | 127.87015 | 26469 ft | 516 kts | 43° |
| 2026-05-05 09:07 | 27.37213 | 127.89927 | 26754 ft | 519 kts | 43° |
| 2026-05-05 09:07 | 27.39705 | 127.92808 | 27076 ft | 520 kts | 43° |
| 2026-05-05 09:07 | 27.42228 | 127.95725 | 27421 ft | 522 kts | 43° |
| 2026-05-05 09:08 | 27.44792 | 127.98689 | 27705 ft | 524 kts | 43° |
| 2026-05-05 09:08 | 27.47333 | 128.01628 | 27968 ft | 527 kts | 43° |
| 2026-05-05 09:08 | 27.49857 | 128.04550 | 28237 ft | 530 kts | 43° |
| 2026-05-05 09:08 | 27.52453 | 128.07556 | 28489 ft | 532 kts | 43° |
| 2026-05-05 09:09 | 27.55044 | 128.10561 | 28849 ft | 532 kts | 42° |
| 2026-05-05 09:09 | 27.57575 | 128.13498 | 29253 ft | 531 kts | 42° |
| 2026-05-05 09:09 | 27.60135 | 128.16470 | 29591 ft | 531 kts | 42° |
| 2026-05-05 09:09 | 27.62732 | 128.19487 | 29950 ft | 531 kts | 42° |
| 2026-05-05 09:10 | 27.65313 | 128.22487 | 30296 ft | 531 kts | 42° |
| 2026-05-05 09:10 | 27.67877 | 128.25470 | 30650 ft | 531 kts | 41° |
| 2026-05-05 09:10 | 27.70455 | 128.28473 | 30989 ft | 530 kts | 41° |
| 2026-05-05 09:10 | 27.73007 | 128.31447 | 31346 ft | 530 kts | 41° |
| 2026-05-05 09:11 | 27.75566 | 128.34428 | 31671 ft | 530 kts | 41° |
| 2026-05-05 09:11 | 27.78133 | 128.37416 | 31858 ft | 533 kts | 43° |
| 2026-05-05 09:11 | 27.80729 | 128.40445 | 32102 ft | 533 kts | 43° |
| 2026-05-05 09:12 | 27.86134 | 128.46133 | 32102 ft | 528 kts | 31° |
| 2026-05-05 09:12 | 27.89264 | 128.48236 | 32102 ft | 518 kts | 18° |
| 2026-05-05 09:12 | 27.92616 | 128.49564 | 32104 ft | 506 kts | 6° |
| 2026-05-05 09:13 | 27.99486 | 128.50398 | 32097 ft | 486 kts | 347° |
| 2026-05-05 09:13 | 28.02743 | 128.49734 | 32112 ft | 470 kts | 335° |
| 2026-05-05 09:13 | 28.05867 | 128.48634 | 32100 ft | 467 kts | 333° |
| 2026-05-05 09:14 | 28.12092 | 128.46507 | 32102 ft | 469 kts | 334° |
| 2026-05-05 09:14 | 28.18369 | 128.44414 | 32102 ft | 468 kts | 334° |
| 2026-05-05 09:15 | 28.24620 | 128.42288 | 32102 ft | 469 kts | 334° |
| 2026-05-05 09:15 | 28.30947 | 128.40129 | 32102 ft | 475 kts | 333° |
| 2026-05-05 09:16 | 28.37278 | 128.37965 | 32102 ft | 474 kts | 333° |
| 2026-05-05 09:16 | 28.43621 | 128.35794 | 32102 ft | 473 kts | 333° |
| 2026-05-05 09:17 | 28.49934 | 128.33627 | 32102 ft | 473 kts | 333° |
| 2026-05-05 09:17 | 28.56234 | 128.31461 | 32102 ft | 474 kts | 333° |
| 2026-05-05 09:18 | 28.62577 | 128.29277 | 32102 ft | 474 kts | 333° |
| 2026-05-05 09:18 | 28.68903 | 128.27097 | 32102 ft | 473 kts | 333° |
| 2026-05-05 09:19 | 28.75235 | 128.24910 | 32102 ft | 473 kts | 333° |
| 2026-05-05 09:19 | 28.81540 | 128.22737 | 32102 ft | 468 kts | 332° |
| 2026-05-05 09:20 | 28.87806 | 128.20563 | 32102 ft | 469 kts | 332° |
| 2026-05-05 09:20 | 28.94074 | 128.18388 | 32102 ft | 470 kts | 332° |
| 2026-05-05 09:21 | 29.00332 | 128.16219 | 32102 ft | 470 kts | 332° |
| 2026-05-05 09:21 | 29.06540 | 128.13994 | 32102 ft | 467 kts | 330° |
| 2026-05-05 09:22 | 29.12728 | 128.11638 | 32102 ft | 467 kts | 330° |
| 2026-05-05 09:22 | 29.18915 | 128.09309 | 32102 ft | 467 kts | 330° |
| 2026-05-05 09:23 | 29.25071 | 128.06990 | 32102 ft | 467 kts | 330° |
| 2026-05-05 09:23 | 29.31240 | 128.04666 | 32101 ft | 465 kts | 330° |
| 2026-05-05 09:24 | 29.37387 | 128.02348 | 32102 ft | 464 kts | 330° |
| 2026-05-05 09:24 | 29.43510 | 128.00035 | 32102 ft | 464 kts | 330° |
| 2026-05-05 09:25 | 29.49683 | 127.97701 | 32102 ft | 465 kts | 330° |
| 2026-05-05 09:25 | 29.55829 | 127.95374 | 32102 ft | 464 kts | 330° |
| 2026-05-05 09:26 | 29.62008 | 127.93031 | 32102 ft | 464 kts | 330° |
| 2026-05-05 09:26 | 29.68152 | 127.90698 | 32102 ft | 464 kts | 330° |
| 2026-05-05 09:27 | 29.74287 | 127.88367 | 32102 ft | 464 kts | 330° |
| 2026-05-05 09:27 | 29.80426 | 127.86032 | 32102 ft | 462 kts | 330° |
| 2026-05-05 09:28 | 29.86541 | 127.83702 | 32102 ft | 462 kts | 330° |
| 2026-05-05 09:28 | 29.92772 | 127.81614 | 32102 ft | 468 kts | 334° |
| 2026-05-05 09:29 | 29.99052 | 127.79629 | 32102 ft | 467 kts | 333° |
| 2026-05-05 09:29 | 30.05308 | 127.77604 | 32102 ft | 467 kts | 333° |
| 2026-05-05 09:30 | 30.11539 | 127.75586 | 32102 ft | 467 kts | 333° |
| 2026-05-05 09:30 | 30.17804 | 127.73547 | 32104 ft | 472 kts | 333° |
| 2026-05-05 09:31 | 30.24173 | 127.71472 | 32102 ft | 474 kts | 333° |
| 2026-05-05 09:31 | 30.30487 | 127.69423 | 32127 ft | 469 kts | 333° |
| 2026-05-05 09:32 | 30.36793 | 127.67361 | 32129 ft | 469 kts | 333° |
| 2026-05-05 09:32 | 30.43058 | 127.65310 | 32129 ft | 470 kts | 333° |
| 2026-05-05 09:33 | 30.49368 | 127.63243 | 32129 ft | 470 kts | 333° |
| 2026-05-05 09:33 | 30.55711 | 127.61163 | 32129 ft | 470 kts | 333° |
| 2026-05-05 09:34 | 30.61979 | 127.59104 | 32129 ft | 470 kts | 333° |
| 2026-05-05 09:34 | 30.68330 | 127.57014 | 32129 ft | 470 kts | 333° |
| 2026-05-05 09:35 | 30.74625 | 127.54942 | 32129 ft | 470 kts | 333° |
| 2026-05-05 09:35 | 30.84004 | 127.51850 | 32129 ft | 466 kts | 332° |
| 2026-05-05 09:36 | 30.90248 | 127.49783 | 32129 ft | 467 kts | 332° |
| 2026-05-05 09:36 | 30.96516 | 127.47709 | 32129 ft | 467 kts | 332° |
| 2026-05-05 09:37 | 31.02786 | 127.45631 | 32129 ft | 467 kts | 332° |
| 2026-05-05 09:37 | 31.09036 | 127.43557 | 32129 ft | 467 kts | 332° |
| 2026-05-05 09:38 | 31.15270 | 127.41486 | 32129 ft | 467 kts | 332° |
| 2026-05-05 09:38 | 31.21529 | 127.39404 | 32129 ft | 467 kts | 332° |
| 2026-05-05 09:39 | 31.27814 | 127.37311 | 32125 ft | 471 kts | 334° |
| 2026-05-05 09:39 | 31.34190 | 127.35209 | 32132 ft | 479 kts | 334° |
| 2026-05-05 09:40 | 31.40630 | 127.33088 | 32128 ft | 483 kts | 334° |
| 2026-05-05 09:40 | 31.47078 | 127.30964 | 32129 ft | 481 kts | 334° |
| 2026-05-05 09:41 | 31.53530 | 127.28831 | 32129 ft | 481 kts | 334° |
| 2026-05-05 09:41 | 31.59965 | 127.26700 | 32129 ft | 481 kts | 334° |
| 2026-05-05 09:42 | 31.66453 | 127.24548 | 32130 ft | 481 kts | 334° |
| 2026-05-05 09:42 | 31.72865 | 127.22420 | 32129 ft | 480 kts | 333° |
| 2026-05-05 09:43 | 31.79296 | 127.20280 | 32128 ft | 480 kts | 332° |
| 2026-05-05 09:43 | 31.85833 | 127.18095 | 32129 ft | 487 kts | 332° |
| 2026-05-05 09:44 | 31.92418 | 127.15897 | 32129 ft | 491 kts | 332° |
| 2026-05-05 09:44 | 31.98994 | 127.13710 | 32099 ft | 485 kts | 332° |
| 2026-05-05 09:45 | 32.05479 | 127.11541 | 32102 ft | 483 kts | 332° |
| 2026-05-05 09:45 | 32.11915 | 127.09358 | 32101 ft | 481 kts | 329° |
| 2026-05-05 09:46 | 32.14875 | 127.07777 | 32102 ft | 455 kts | 314° |
| 2026-05-05 09:46 | 32.17217 | 127.05400 | 32112 ft | 429 kts | 300° |
| 2026-05-05 09:46 | 32.21155 | 127.00125 | 32097 ft | 420 kts | 294° |
| 2026-05-05 09:47 | 32.22567 | 126.97182 | 32100 ft | 398 kts | 280° |
| 2026-05-05 09:47 | 32.23222 | 126.94083 | 32111 ft | 385 kts | 271° |
| 2026-05-05 09:47 | 32.24005 | 126.87762 | 32098 ft | 376 kts | 263° |
| 2026-05-05 09:48 | 32.23680 | 126.84749 | 32109 ft | 367 kts | 252° |
| 2026-05-05 09:48 | 32.23004 | 126.81811 | 32100 ft | 366 kts | 251° |
| 2026-05-05 09:48 | 32.21764 | 126.75957 | 32101 ft | 367 kts | 252° |
| 2026-05-05 09:49 | 32.20490 | 126.70071 | 32102 ft | 364 kts | 251° |
| 2026-05-05 09:49 | 32.19204 | 126.64185 | 32102 ft | 363 kts | 252° |
| 2026-05-05 09:50 | 32.17945 | 126.58289 | 32102 ft | 364 kts | 252° |
| 2026-05-05 09:50 | 32.16670 | 126.52368 | 32102 ft | 364 kts | 252° |
| 2026-05-05 09:51 | 32.15395 | 126.46469 | 32102 ft | 364 kts | 252° |
| 2026-05-05 09:51 | 32.14119 | 126.40592 | 32102 ft | 364 kts | 252° |
| 2026-05-05 09:52 | 32.12832 | 126.34676 | 32103 ft | 364 kts | 251° |
| 2026-05-05 09:52 | 32.11546 | 126.28782 | 32102 ft | 364 kts | 251° |
| 2026-05-05 09:53 | 32.10252 | 126.22875 | 32101 ft | 365 kts | 252° |
| 2026-05-05 09:53 | 32.08959 | 126.16981 | 32102 ft | 365 kts | 252° |
| 2026-05-05 09:54 | 32.07674 | 126.11128 | 32102 ft | 359 kts | 252° |
| 2026-05-05 09:54 | 32.06399 | 126.05343 | 32102 ft | 355 kts | 252° |
| 2026-05-05 09:55 | 32.05163 | 125.99575 | 32102 ft | 357 kts | 252° |
| 2026-05-05 09:55 | 32.03930 | 125.93826 | 32102 ft | 357 kts | 252° |
| 2026-05-05 09:56 | 32.02688 | 125.88052 | 32102 ft | 357 kts | 252° |
| 2026-05-05 09:56 | 32.01435 | 125.82244 | 32102 ft | 357 kts | 252° |
| 2026-05-05 09:57 | 32.00187 | 125.76488 | 32102 ft | 357 kts | 252° |
| 2026-05-05 09:57 | 31.98923 | 125.70825 | 32102 ft | 361 kts | 252° |
| 2026-05-05 09:58 | 31.97631 | 125.64998 | 32103 ft | 369 kts | 253° |
| 2026-05-05 09:58 | 31.96346 | 125.59212 | 32102 ft | 369 kts | 253° |
| 2026-05-05 09:59 | 31.95029 | 125.53303 | 32102 ft | 368 kts | 253° |
| 2026-05-05 09:59 | 31.93712 | 125.47411 | 32102 ft | 368 kts | 253° |
| 2026-05-05 10:00 | 31.92387 | 125.41496 | 32102 ft | 369 kts | 253° |
| 2026-05-05 10:00 | 31.91065 | 125.35612 | 32102 ft | 369 kts | 253° |
| 2026-05-05 10:01 | 31.89738 | 125.29718 | 32102 ft | 369 kts | 252° |
| 2026-05-05 10:01 | 31.88414 | 125.23851 | 32101 ft | 369 kts | 252° |
| 2026-05-05 10:02 | 31.87074 | 125.17931 | 32104 ft | 379 kts | 253° |
| 2026-05-05 10:02 | 31.85690 | 125.11825 | 32102 ft | 380 kts | 253° |
| 2026-05-05 10:03 | 31.84297 | 125.05692 | 32102 ft | 378 kts | 253° |
| 2026-05-05 10:03 | 31.82909 | 124.99595 | 32102 ft | 378 kts | 253° |
| 2026-05-05 10:04 | 31.81591 | 124.93501 | 32102 ft | 379 kts | 253° |
| 2026-05-05 10:04 | 31.80270 | 124.87376 | 32102 ft | 379 kts | 253° |
| 2026-05-05 10:05 | 31.78943 | 124.81256 | 32102 ft | 379 kts | 253° |
| 2026-05-05 10:05 | 31.77622 | 124.75182 | 32102 ft | 378 kts | 253° |
| 2026-05-05 10:06 | 31.76300 | 124.69122 | 32102 ft | 382 kts | 253° |
| 2026-05-05 10:06 | 31.74959 | 124.62980 | 32102 ft | 382 kts | 253° |
| 2026-05-05 10:07 | 31.73640 | 124.56953 | 32101 ft | 372 kts | 253° |
| 2026-05-05 10:07 | 31.72356 | 124.51108 | 32041 ft | 366 kts | 253° |
| 2026-05-05 10:08 | 31.71064 | 124.45243 | 31994 ft | 368 kts | 253° |
| 2026-05-05 10:08 | 31.69771 | 124.39388 | 31994 ft | 369 kts | 253° |
| 2026-05-05 10:09 | 31.68472 | 124.33514 | 31994 ft | 369 kts | 252° |
| 2026-05-05 10:09 | 31.67164 | 124.27614 | 31994 ft | 368 kts | 252° |
| 2026-05-05 10:10 | 31.65858 | 124.21741 | 31994 ft | 371 kts | 253° |
| 2026-05-05 10:10 | 31.64517 | 124.15725 | 31994 ft | 380 kts | 253° |
| 2026-05-05 10:11 | 31.63157 | 124.09628 | 31993 ft | 379 kts | 253° |
| 2026-05-05 10:11 | 31.61809 | 124.03606 | 31994 ft | 378 kts | 253° |
| 2026-05-05 10:12 | 31.60465 | 123.97581 | 31994 ft | 378 kts | 253° |
| 2026-05-05 10:12 | 31.59153 | 123.91537 | 31832 ft | 375 kts | 253° |
| 2026-05-05 10:13 | 31.58507 | 123.88576 | 31573 ft | 367 kts | 253° |
| 2026-05-05 10:13 | 31.57877 | 123.85696 | 31326 ft | 363 kts | 253° |
| 2026-05-05 10:13 | 31.57238 | 123.82783 | 31075 ft | 364 kts | 253° |
| 2026-05-05 10:13 | 31.56599 | 123.79875 | 30824 ft | 365 kts | 253° |
| 2026-05-05 10:14 | 31.55957 | 123.76952 | 30571 ft | 365 kts | 253° |
| 2026-05-05 10:14 | 31.55317 | 123.74042 | 30317 ft | 364 kts | 253° |
| 2026-05-05 10:14 | 31.54676 | 123.71131 | 30063 ft | 367 kts | 253° |
| 2026-05-05 10:14 | 31.54020 | 123.68160 | 29809 ft | 370 kts | 253° |
| 2026-05-05 10:15 | 31.53372 | 123.65220 | 29556 ft | 369 kts | 253° |
| 2026-05-05 10:15 | 31.52724 | 123.62285 | 29302 ft | 367 kts | 253° |
| 2026-05-05 10:15 | 31.52082 | 123.59383 | 29049 ft | 366 kts | 254° |
| 2026-05-05 10:15 | 31.51429 | 123.56435 | 28793 ft | 365 kts | 254° |
| 2026-05-05 10:16 | 31.50786 | 123.53535 | 28540 ft | 364 kts | 254° |
| 2026-05-05 10:16 | 31.50144 | 123.50645 | 28288 ft | 363 kts | 254° |
| 2026-05-05 10:16 | 31.49536 | 123.47730 | 28034 ft | 363 kts | 256° |
| 2026-05-05 10:16 | 31.48998 | 123.44801 | 27780 ft | 362 kts | 256° |
| 2026-05-05 10:17 | 31.48462 | 123.41894 | 27527 ft | 361 kts | 256° |
| 2026-05-05 10:17 | 31.47914 | 123.39003 | 27275 ft | 361 kts | 256° |
| 2026-05-05 10:17 | 31.47359 | 123.36081 | 27019 ft | 360 kts | 256° |
| 2026-05-05 10:17 | 31.46817 | 123.33221 | 26768 ft | 359 kts | 256° |
| 2026-05-05 10:18 | 31.46270 | 123.30341 | 26450 ft | 356 kts | 256° |
| 2026-05-05 10:18 | 31.45734 | 123.27527 | 25925 ft | 350 kts | 256° |
| 2026-05-05 10:18 | 31.45197 | 123.24712 | 25366 ft | 355 kts | 256° |
| 2026-05-05 10:18 | 31.44640 | 123.21806 | 24769 ft | 360 kts | 256° |
| 2026-05-05 10:19 | 31.44091 | 123.18938 | 24174 ft | 356 kts | 257° |
| 2026-05-05 10:19 | 31.43553 | 123.16122 | 23595 ft | 352 kts | 257° |
| 2026-05-05 10:19 | 31.43009 | 123.13287 | 23012 ft | 348 kts | 257° |
| 2026-05-05 10:19 | 31.42479 | 123.10528 | 22447 ft | 344 kts | 257° |
| 2026-05-05 10:20 | 31.41946 | 123.07759 | 21883 ft | 345 kts | 257° |
| 2026-05-05 10:20 | 31.41410 | 123.04974 | 21306 ft | 344 kts | 257° |
| 2026-05-05 10:20 | 31.40884 | 123.02248 | 20743 ft | 340 kts | 257° |
| 2026-05-05 10:20 | 31.40359 | 122.99529 | 20183 ft | 336 kts | 257° |
| 2026-05-05 10:21 | 31.39843 | 122.96858 | 19640 ft | 336 kts | 257° |
| 2026-05-05 10:21 | 31.39312 | 122.94113 | 19076 ft | 340 kts | 258° |
| 2026-05-05 10:21 | 31.38787 | 122.91403 | 18515 ft | 336 kts | 258° |
| 2026-05-05 10:21 | 31.38263 | 122.88701 | 17961 ft | 332 kts | 258° |
| 2026-05-05 10:22 | 31.37753 | 122.86078 | 17430 ft | 327 kts | 258° |
| 2026-05-05 10:22 | 31.37241 | 122.83446 | 16899 ft | 329 kts | 258° |
| 2026-05-05 10:22 | 31.36721 | 122.80798 | 16357 ft | 330 kts | 257° |
| 2026-05-05 10:22 | 31.36073 | 122.78200 | 15826 ft | 327 kts | 252° |
| 2026-05-05 10:23 | 31.35150 | 122.75719 | 15722 ft | 329 kts | 245° |
| 2026-05-05 10:23 | 31.34062 | 122.73344 | 15399 ft | 325 kts | 243° |
| 2026-05-05 10:23 | 31.32968 | 122.70959 | 14920 ft | 334 kts | 244° |
| 2026-05-05 10:23 | 31.31874 | 122.68574 | 14385 ft | 330 kts | 243° |
| 2026-05-05 10:24 | 31.30773 | 122.66206 | 13857 ft | 327 kts | 243° |
| 2026-05-05 10:24 | 31.29675 | 122.63859 | 13335 ft | 323 kts | 243° |
| 2026-05-05 10:24 | 31.28590 | 122.61543 | 12816 ft | 324 kts | 243° |
| 2026-05-05 10:24 | 31.27489 | 122.59194 | 12380 ft | 322 kts | 243° |
| 2026-05-05 10:25 | 31.26420 | 122.56923 | 12145 ft | 315 kts | 243° |
| 2026-05-05 10:25 | 31.25342 | 122.54630 | 12024 ft | 324 kts | 243° |
| 2026-05-05 10:25 | 31.24259 | 122.52331 | 11869 ft | 312 kts | 243° |
| 2026-05-05 10:25 | 31.23190 | 122.50064 | 11652 ft | 321 kts | 243° |
| 2026-05-05 10:26 | 31.22092 | 122.47735 | 11220 ft | 319 kts | 243° |
| 2026-05-05 10:26 | 31.21024 | 122.45473 | 10754 ft | 314 kts | 242° |
| 2026-05-05 10:26 | 31.19964 | 122.43231 | 10459 ft | 304 kts | 242° |
| 2026-05-05 10:26 | 31.18964 | 122.41116 | 10320 ft | 290 kts | 242° |
| 2026-05-05 10:27 | 31.18000 | 122.39076 | 10195 ft | 276 kts | 242° |
| 2026-05-05 10:27 | 31.17067 | 122.37104 | 9924 ft | 270 kts | 242° |
| 2026-05-05 10:27 | 31.16150 | 122.35167 | 9565 ft | 268 kts | 242° |
| 2026-05-05 10:27 | 31.15258 | 122.33282 | 9225 ft | 265 kts | 242° |
| 2026-05-05 10:28 | 31.14374 | 122.31418 | 8890 ft | 262 kts | 241° |
| 2026-05-05 10:28 | 31.13481 | 122.29534 | 8553 ft | 261 kts | 241° |
| 2026-05-05 10:28 | 31.12592 | 122.27659 | 8220 ft | 265 kts | 241° |
| 2026-05-05 10:28 | 31.11696 | 122.25772 | 7876 ft | 262 kts | 241° |
| 2026-05-05 10:29 | 31.10806 | 122.23897 | 7538 ft | 259 kts | 240° |
| 2026-05-05 10:29 | 31.09935 | 122.22063 | 7207 ft | 256 kts | 240° |
| 2026-05-05 10:29 | 31.09070 | 122.20232 | 6923 ft | 254 kts | 243° |
| 2026-05-05 10:29 | 31.08569 | 122.18266 | 6887 ft | 251 kts | 265° |
| 2026-05-05 10:30 | 31.08536 | 122.16209 | 6882 ft | 252 kts | 268° |
| 2026-05-05 10:30 | 31.08487 | 122.14146 | 6883 ft | 252 kts | 267° |
| 2026-05-05 10:30 | 31.08432 | 122.12106 | 6884 ft | 252 kts | 267° |
| 2026-05-05 10:30 | 31.08380 | 122.10046 | 6884 ft | 252 kts | 267° |
| 2026-05-05 10:31 | 31.08328 | 122.08003 | 6884 ft | 252 kts | 267° |
| 2026-05-05 10:31 | 31.08275 | 122.05945 | 6884 ft | 252 kts | 267° |
| 2026-05-05 10:31 | 31.08222 | 122.03893 | 6884 ft | 252 kts | 267° |
| 2026-05-05 10:31 | 31.08168 | 122.01830 | 6884 ft | 252 kts | 267° |
| 2026-05-05 10:32 | 31.08242 | 121.99766 | 6877 ft | 253 kts | 282° |
| 2026-05-05 10:32 | 31.09031 | 121.97920 | 6886 ft | 255 kts | 311° |
| 2026-05-05 10:32 | 31.10448 | 121.96676 | 6884 ft | 258 kts | 335° |
| 2026-05-05 10:32 | 31.12144 | 121.95996 | 6886 ft | 259 kts | 342° |
| 2026-05-05 10:33 | 31.13891 | 121.95348 | 6884 ft | 259 kts | 341° |
| 2026-05-05 10:33 | 31.15576 | 121.94707 | 6824 ft | 251 kts | 341° |
| 2026-05-05 10:33 | 31.17253 | 121.94076 | 6601 ft | 256 kts | 341° |
| 2026-05-05 10:33 | 31.18968 | 121.93430 | 6295 ft | 255 kts | 341° |
| 2026-05-05 10:34 | 31.20657 | 121.92794 | 5989 ft | 253 kts | 341° |
| 2026-05-05 10:34 | 31.22346 | 121.92158 | 5679 ft | 250 kts | 341° |
| 2026-05-05 10:34 | 31.24007 | 121.91534 | 5374 ft | 248 kts | 341° |
| 2026-05-05 10:34 | 31.25677 | 121.90904 | 5072 ft | 253 kts | 341° |
| 2026-05-05 10:35 | 31.27354 | 121.90273 | 4756 ft | 252 kts | 341° |
| 2026-05-05 10:35 | 31.29024 | 121.89643 | 4447 ft | 249 kts | 342° |
| 2026-05-05 10:35 | 31.30686 | 121.89017 | 4142 ft | 247 kts | 342° |
| 2026-05-05 10:35 | 31.32334 | 121.88395 | 3841 ft | 249 kts | 342° |
| 2026-05-05 10:36 | 31.34009 | 121.87763 | 3527 ft | 251 kts | 342° |
| 2026-05-05 10:36 | 31.35672 | 121.87136 | 3217 ft | 249 kts | 342° |
| 2026-05-05 10:36 | 31.37332 | 121.86509 | 2907 ft | 247 kts | 342° |
| 2026-05-05 10:36 | 31.38988 | 121.85883 | 2600 ft | 245 kts | 342° |
| 2026-05-05 10:37 | 31.40613 | 121.85269 | 2302 ft | 243 kts | 342° |
| 2026-05-05 10:37 | 31.42224 | 121.84660 | 2144 ft | 238 kts | 342° |
| 2026-05-05 10:37 | 31.43698 | 121.83762 | 2061 ft | 235 kts | 314° |
| 2026-05-05 10:37 | 31.44441 | 121.82117 | 2004 ft | 222 kts | 274° |
| 2026-05-05 10:38 | 31.44362 | 121.80314 | 1996 ft | 221 kts | 256° |
| 2026-05-05 10:38 | 31.44037 | 121.78549 | 1996 ft | 215 kts | 256° |
| 2026-05-05 10:38 | 31.43733 | 121.76883 | 1996 ft | 195 kts | 255° |
| 2026-05-05 10:38 | 31.43455 | 121.75389 | 1991 ft | 182 kts | 255° |
| 2026-05-05 10:39 | 31.43174 | 121.73920 | 1991 ft | 182 kts | 251° |
| 2026-05-05 10:39 | 31.42556 | 121.72692 | 1996 ft | 176 kts | 214° |
| 2026-05-05 10:39 | 31.41423 | 121.72188 | 1996 ft | 174 kts | 183° |
| 2026-05-05 10:39 | 31.40248 | 121.72417 | 2005 ft | 173 kts | 160° |
| 2026-05-05 10:40 | 31.39087 | 121.72878 | 1991 ft | 173 kts | 162° |
| 2026-05-05 10:40 | 31.37940 | 121.73309 | 1990 ft | 173 kts | 162° |
| 2026-05-05 10:40 | 31.36794 | 121.73743 | 1993 ft | 173 kts | 162° |
| 2026-05-05 10:40 | 31.35630 | 121.74186 | 1994 ft | 173 kts | 162° |
| 2026-05-05 10:41 | 31.34468 | 121.74634 | 1994 ft | 173 kts | 162° |
| 2026-05-05 10:41 | 31.33334 | 121.75069 | 1994 ft | 172 kts | 162° |
| 2026-05-05 10:41 | 31.32176 | 121.75510 | 1994 ft | 173 kts | 162° |
| 2026-05-05 10:41 | 31.31009 | 121.75951 | 1994 ft | 173 kts | 162° |
| 2026-05-05 10:42 | 31.28754 | 121.76805 | 1995 ft | 163 kts | 162° |
| 2026-05-05 10:42 | 31.27657 | 121.77220 | 1994 ft | 162 kts | 162° |
| 2026-05-05 10:42 | 31.26579 | 121.77628 | 1994 ft | 162 kts | 162° |
| 2026-05-05 10:43 | 31.25543 | 121.78020 | 1967 ft | 154 kts | 162° |
| 2026-05-05 10:43 | 31.24547 | 121.78397 | 1822 ft | 144 kts | 162° |
| 2026-05-05 10:43 | 31.23609 | 121.78751 | 1588 ft | 137 kts | 162° |
| 2026-05-05 10:43 | 31.22696 | 121.79095 | 1428 ft | 138 kts | 162° |
| 2026-05-05 10:44 | 31.21778 | 121.79442 | 1236 ft | 137 kts | 162° |
| 2026-05-05 10:44 | 31.20867 | 121.79787 | 1050 ft | 137 kts | 161° |
| 2026-05-05 10:44 | 31.19953 | 121.80132 | 863 ft | 136 kts | 161° |
| 2026-05-05 10:44 | 31.19043 | 121.80475 | 677 ft | 136 kts | 161° |
| 2026-05-05 10:45 | 31.18146 | 121.80814 | 493 ft | 134 kts | 161° |
| 2026-05-05 10:45 | 31.17250 | 121.81155 | 306 ft | 135 kts | 161° |
| 2026-05-05 10:45 | 31.16362 | 121.81489 | 127 ft | 132 kts | 161° |
| 2026-05-05 10:45 | 31.15490 | 121.81803 | 20 ft | 120 kts | 162° |
| 2026-05-05 10:46 | 31.14838 | 121.82058 | 21 ft | 75 kts | 162° |
| 2026-05-05 10:46 | 31.14461 | 121.82201 | 23 ft | 42 kts | 163° |
| 2026-05-05 10:46 | 31.14203 | 121.82295 | 22 ft | 33 kts | 165° |
| 2026-05-05 10:46 | 31.13989 | 121.82299 | 24 ft | 31 kts | 188° |
| 2026-05-05 10:47 | 31.13778 | 121.82267 | 24 ft | 25 kts | 180° |
| 2026-05-05 10:47 | 31.13633 | 121.82303 | 23 ft | 19 kts | 161° |
| 2026-05-05 10:47 | 31.13516 | 121.82352 | 22 ft | 16 kts | 162° |
| 2026-05-05 10:47 | 31.13398 | 121.82373 | 23 ft | 16 kts | 183° |
| 2026-05-05 10:48 | 31.13288 | 121.82375 | 24 ft | 14 kts | 169° |
| 2026-05-05 10:48 | 31.13191 | 121.82410 | 25 ft | 14 kts | 161° |
| 2026-05-05 10:48 | 31.13090 | 121.82448 | 24 ft | 16 kts | 162° |
| 2026-05-05 10:48 | 31.12967 | 121.82494 | 24 ft | 19 kts | 162° |
| 2026-05-05 10:49 | 31.12829 | 121.82546 | 23 ft | 20 kts | 162° |
| 2026-05-05 10:49 | 31.12730 | 121.82580 | 21 ft | 9 kts | 178° |
| 2026-05-05 10:49 | 31.12680 | 121.82519 | 22 ft | 12 kts | 250° |
| 2026-05-05 10:49 | 31.12649 | 121.82412 | 22 ft | 15 kts | 252° |
| 2026-05-05 10:50 | 31.12615 | 121.82284 | 22 ft | 17 kts | 252° |
| 2026-05-05 10:50 | 31.12581 | 121.82157 | 23 ft | 10 kts | 254° |
| 2026-05-05 10:50 | 31.12606 | 121.82090 | 23 ft | 11 kts | 330° |
| 2026-05-05 10:50 | 31.12696 | 121.82053 | 23 ft | 15 kts | 342° |
| 2026-05-05 10:51 | 31.12812 | 121.82011 | 23 ft | 19 kts | 343° |
| 2026-05-05 10:51 | 31.12953 | 121.81959 | 23 ft | 23 kts | 343° |
| 2026-05-05 10:51 | 31.13103 | 121.81906 | 23 ft | 16 kts | 340° |
| 2026-05-05 10:51 | 31.13201 | 121.81866 | 23 ft | 10 kts | 342° |
| 2026-05-05 10:52 | 31.13238 | 121.81805 | 23 ft | 11 kts | 265° |
| 2026-05-05 10:52 | 31.13212 | 121.81698 | 23 ft | 14 kts | 252° |
| 2026-05-05 10:52 | 31.13176 | 121.81571 | 22 ft | 17 kts | 252° |
| 2026-05-05 10:52 | 31.13137 | 121.81429 | 22 ft | 18 kts | 252° |
| 2026-05-05 10:53 | 31.13094 | 121.81278 | 22 ft | 19 kts | 251° |
| 2026-05-05 10:53 | 31.13052 | 121.81126 | 23 ft | 18 kts | 252° |
| 2026-05-05 10:53 | 31.13013 | 121.80984 | 23 ft | 15 kts | 252° |
| 2026-05-05 10:53 | 31.12980 | 121.80868 | 22 ft | 15 kts | 252° |
| 2026-05-05 10:54 | 31.12965 | 121.80777 | 22 ft | 8 kts | 302° |
| 2026-05-05 10:54 | 31.13023 | 121.80736 | 22 ft | 11 kts | 341° |
| 2026-05-05 10:54 | 31.13103 | 121.80705 | 22 ft | 12 kts | 341° |
| 2026-05-05 10:54 | 31.13188 | 121.80672 | 22 ft | 13 kts | 341° |
| 2026-05-05 10:55 | 31.13236 | 121.80631 | 22 ft | 6 kts | 272° |
| 2026-05-05 10:55 | 31.13230 | 121.80598 | 22 ft | 3 kts | 254° |
| 2026-05-05 10:55 | 31.13224 | 121.80576 | 22 ft | 0 kts | 252° |
| 2026-05-05 10:55 | 31.13223 | 121.80570 | 22 ft | 0 kts | 252° |
| 2026-05-05 10:56 | 31.13221 | 121.80562 | 22 ft | 1 kts | 252° |
| 2026-05-05 10:56 | 31.13218 | 121.80554 | 22 ft | 0 kts | 252° |
| 2026-05-05 10:56 | 31.13218 | 121.80551 | 22 ft | 0 kts | 252° |
| 2026-05-05 10:56 | 31.13217 | 121.80550 | 22 ft | 0 kts | 252° |